createdAt,value
2019-02-16T00:01:32.430Z,10.92
2019-02-16T00:06:41.250Z,11.51
2019-02-16T00:11:49.977Z,10.90
2019-02-16T00:16:58.410Z,10.97
2019-02-16T00:22:07.513Z,10.72
2019-02-16T00:27:15.882Z,10.75
2019-02-16T00:32:24.828Z,11.02
2019-02-16T00:37:33.242Z,10.36
2019-02-16T00:42:41.947Z,10.63
2019-02-16T00:47:50.324Z,10.44
2019-02-16T00:52:59.068Z,10.86
2019-02-16T00:58:07.624Z,11.18
2019-02-16T01:03:16.302Z,10.55
2019-02-16T01:08:24.793Z,10.55
2019-02-16T01:13:33.549Z,10.73
2019-02-16T01:18:41.958Z,11.44
2019-02-16T01:23:50.773Z,10.63
2019-02-16T01:28:59.168Z,10.79
2019-02-16T01:34:07.977Z,11.50
2019-02-16T01:39:16.391Z,11.34
2019-02-16T01:44:25.173Z,11.28
2019-02-16T01:49:33.553Z,10.59
2019-02-16T01:54:42.278Z,10.35
2019-02-16T01:59:50.690Z,10.67
2019-02-16T02:04:59.539Z,10.02
2019-02-16T02:10:06.481Z,10.76
2019-02-16T02:15:15.176Z,10.27
2019-02-16T02:20:23.577Z,10.57
2019-02-16T02:25:32.592Z,10.32
2019-02-16T02:30:41.019Z,10.77
2019-02-16T02:35:49.688Z,10.12
2019-02-16T02:40:58.106Z,9.99
2019-02-16T02:46:07.051Z,10.24
2019-02-16T02:51:15.489Z,9.88
2019-02-16T02:56:24.190Z,9.60
2019-02-16T03:01:32.612Z,10.06
2019-02-16T03:06:41.305Z,10.25
2019-02-16T03:11:49.773Z,9.86
2019-02-16T03:16:58.615Z,10.50
2019-02-16T03:22:07.007Z,10.23
2019-02-16T03:27:15.952Z,10.04
2019-02-16T03:32:24.527Z,9.72
2019-02-16T03:37:32.873Z,10.10
2019-02-16T03:42:41.316Z,10.01
2019-02-16T03:47:49.981Z,10.41
2019-02-16T03:52:58.446Z,9.75
2019-02-16T03:58:07.405Z,10.46
2019-02-16T04:03:15.861Z,10.78
2019-02-16T04:08:24.734Z,10.28
2019-02-16T04:13:33.325Z,10.00
2019-02-16T04:18:42.026Z,9.92
2019-02-16T04:23:50.431Z,10.00
2019-02-16T04:28:59.271Z,10.02
2019-02-16T04:34:07.696Z,9.94
2019-02-16T04:39:16.334Z,9.68
2019-02-16T04:44:24.916Z,9.94
2019-02-16T04:49:34.652Z,9.47
2019-02-16T04:54:43.010Z,9.63
2019-02-16T04:59:51.746Z,9.74
2019-02-16T05:05:00.142Z,9.78
2019-02-16T05:10:08.830Z,8.98
2019-02-16T05:15:17.161Z,9.20
2019-02-16T05:20:25.943Z,9.72
2019-02-16T05:25:34.321Z,9.43
2019-02-16T05:30:43.669Z,9.47
2019-02-16T05:35:52.092Z,10.54
2019-02-16T05:41:01.110Z,10.87
2019-02-16T05:46:09.676Z,9.94
2019-02-16T05:51:18.588Z,10.57
2019-02-16T05:56:26.941Z,10.15
2019-02-16T06:01:35.792Z,10.59
2019-02-16T06:06:44.148Z,10.07
2019-02-16T06:11:53.147Z,9.89
2019-02-16T06:17:01.419Z,10.29
2019-02-16T06:22:10.228Z,10.18
2019-02-16T06:27:19.067Z,10.16
2019-02-16T06:32:27.805Z,15.84
2019-02-16T06:37:36.497Z,10.64
2019-02-16T06:42:45.322Z,9.60
2019-02-16T06:47:52.284Z,10.02
2019-02-16T06:53:01.034Z,11.52
2019-02-16T06:58:09.391Z,11.79
2019-02-16T07:03:18.439Z,11.61
2019-02-16T07:08:26.790Z,11.05
2019-02-16T07:13:35.637Z,10.46
2019-02-16T07:18:44.029Z,11.13
2019-02-16T07:23:52.722Z,11.30
2019-02-16T07:29:01.131Z,11.45
2019-02-16T07:34:10.162Z,11.42
2019-02-16T07:39:18.587Z,11.74
2019-02-16T07:44:27.492Z,11.67
2019-02-16T07:49:56.808Z,11.49
2019-02-16T07:54:45.238Z,11.78
2019-02-16T07:59:53.702Z,10.99
2019-02-16T08:05:02.516Z,11.55
2019-02-16T08:10:10.905Z,12.06
2019-02-16T08:15:19.708Z,11.07
2019-02-16T08:20:28.128Z,10.91
2019-02-16T08:25:36.882Z,10.42
2019-02-16T08:30:45.275Z,10.76
2019-02-16T08:35:53.950Z,10.50
2019-02-16T08:41:02.401Z,11.18
2019-02-16T08:46:11.347Z,11.45
2019-02-16T08:51:20.108Z,11.22
2019-02-16T08:56:27.313Z,11.28
2019-02-16T09:06:41.385Z,13.00
2019-02-16T09:11:50.541Z,13.76
2019-02-16T09:17:30.072Z,12.56
2019-02-16T10:59:15.655Z,16.44
2019-02-16T11:09:19.481Z,15.85
2019-02-16T11:19:38.702Z,15.94
2019-02-16T12:05:42.303Z,16.93
2019-02-16T12:30:55.321Z,17.61
2019-02-16T12:41:09.242Z,17.98
2019-02-16T14:28:15.672Z,17.93
2019-02-16T14:53:39.007Z,18.50
2019-02-16T14:58:47.503Z,18.72
2019-02-16T15:14:19.839Z,17.67
2019-02-16T15:29:19.458Z,17.24
2019-02-16T15:49:17.472Z,18.12
2019-02-16T16:55:36.287Z,19.73
2019-02-16T17:00:45.321Z,19.16
2019-02-16T17:05:53.902Z,19.10
2019-02-16T17:11:02.368Z,18.75
2019-02-16T17:16:11.016Z,18.58
2019-02-16T17:21:19.110Z,20.03
2019-02-16T17:26:27.900Z,18.57
2019-02-16T17:31:36.242Z,19.05
2019-02-16T17:36:45.106Z,20.27
2019-02-16T17:41:53.582Z,19.66
2019-02-16T17:47:02.439Z,20.12
2019-02-16T17:52:11.469Z,21.28
2019-02-16T17:57:20.052Z,19.97
2019-02-16T18:02:28.380Z,20.47
2019-02-16T18:07:36.827Z,22.37
2019-02-16T18:12:45.206Z,27.80
2019-02-16T18:17:53.840Z,27.13
2019-02-16T18:23:03.026Z,32.70
2019-02-16T18:28:11.418Z,30.05
2019-02-16T18:33:19.884Z,34.49
2019-02-16T18:38:28.553Z,29.63
2019-02-16T18:43:37.008Z,26.32
2019-02-16T18:48:45.737Z,25.79
2019-02-16T18:53:54.605Z,24.66
2019-02-16T18:59:03.515Z,26.34
2019-02-16T19:04:12.390Z,29.18
2019-02-16T19:09:21.849Z,30.19
2019-02-16T19:14:31.359Z,26.14
2019-02-16T19:19:40.232Z,27.05
2019-02-16T19:24:48.669Z,26.91
2019-02-16T19:29:57.487Z,26.83
2019-02-16T19:35:05.990Z,25.47
2019-02-16T19:40:14.558Z,25.45
2019-02-16T19:45:23.584Z,25.42
2019-02-16T19:50:32.742Z,25.02
2019-02-16T19:55:42.769Z,26.25
2019-02-16T20:00:41.093Z,32.54
2019-02-16T20:05:49.513Z,29.73
2019-02-16T20:10:58.290Z,28.98
2019-02-16T20:16:06.729Z,29.29
2019-02-16T20:21:15.387Z,32.18
2019-02-16T20:26:23.793Z,30.26
2019-02-16T20:31:32.754Z,33.57
2019-02-16T20:36:41.424Z,39.07
2019-02-16T20:41:49.807Z,37.63
2019-02-16T20:46:58.570Z,35.28
2019-02-16T20:52:07.080Z,36.14
2019-02-16T20:57:16.044Z,35.76
2019-02-16T21:02:23.063Z,35.98
2019-02-16T21:07:32.029Z,38.43
2019-02-16T21:12:40.674Z,38.14
2019-02-16T21:17:49.469Z,38.28
2019-02-16T21:22:58.452Z,33.57
2019-02-16T21:28:12.007Z,30.32
2019-02-16T21:33:10.362Z,26.72
2019-02-16T21:38:20.100Z,26.79
2019-02-16T21:43:28.504Z,27.00
2019-02-16T21:48:37.241Z,28.93
2019-02-16T21:53:45.768Z,30.59
2019-02-16T21:58:54.868Z,31.21
2019-02-16T22:04:03.350Z,29.73
2019-02-16T22:09:12.091Z,27.93
2019-02-16T22:14:20.532Z,28.22
2019-02-16T22:19:29.053Z,26.38
2019-02-16T22:24:37.411Z,24.79
2019-02-16T22:29:46.645Z,25.45
2019-02-16T22:34:54.969Z,25.86
2019-02-16T22:40:03.782Z,26.22
2019-02-16T22:45:12.167Z,24.51
2019-02-16T22:50:21.301Z,24.27
2019-02-16T22:55:29.889Z,23.67
2019-02-16T23:00:38.580Z,24.79
2019-02-16T23:05:47.314Z,24.63
2019-02-16T23:10:55.785Z,24.58
2019-02-16T23:16:08.426Z,23.00
2019-02-16T23:21:10.387Z,22.36
2019-02-16T23:26:11.636Z,21.78
2019-02-16T23:31:10.440Z,21.00
2019-02-16T23:36:19.686Z,20.41
2019-02-16T23:41:28.113Z,20.01
2019-02-16T23:46:35.461Z,19.86
2019-02-16T23:51:44.628Z,19.13
2019-02-16T23:56:53.390Z,18.42
